createdAt,value
2022-08-24T00:00:40.446Z,41.68
2022-08-24T00:03:13.464Z,41.69
2022-08-24T00:05:46.159Z,41.70
2022-08-24T00:08:19.159Z,41.87
2022-08-24T00:10:51.046Z,41.91
2022-08-24T00:13:22.879Z,41.85
2022-08-24T00:15:55.596Z,41.85
2022-08-24T00:18:27.442Z,41.77
2022-08-24T00:20:59.344Z,41.87
2022-08-24T00:23:31.332Z,41.79
2022-08-24T00:26:03.316Z,41.68
2022-08-24T00:28:35.780Z,41.65
2022-08-24T00:31:08.334Z,41.74
2022-08-24T00:33:41.283Z,41.71
2022-08-24T00:36:13.276Z,41.66
2022-08-24T00:38:45.020Z,41.46
2022-08-24T00:41:17.250Z,41.36
2022-08-24T00:43:56.311Z,41.41
2022-08-24T00:46:46.449Z,41.31
2022-08-24T00:49:29.761Z,41.52
2022-08-24T00:52:11.278Z,41.23
2022-08-24T00:54:49.669Z,41.32
2022-08-24T00:57:23.923Z,41.10
2022-08-24T01:00:02.045Z,40.99
2022-08-24T01:02:37.069Z,40.85
2022-08-24T01:05:09.846Z,40.69
2022-08-24T01:07:41.915Z,40.66
2022-08-24T01:10:16.373Z,40.43
2022-08-24T01:13:00.776Z,40.36
2022-08-24T01:15:23.175Z,40.27
2022-08-24T01:18:12.907Z,40.14
2022-08-24T01:20:46.545Z,40.09
2022-08-24T01:23:38.376Z,39.92
2022-08-24T01:26:12.327Z,39.87
2022-08-24T01:28:47.584Z,39.87
2022-08-24T01:31:23.359Z,39.76
2022-08-24T01:33:56.975Z,39.73
2022-08-24T01:36:40.563Z,39.78
2022-08-24T01:39:21.164Z,39.80
2022-08-24T01:41:53.352Z,39.83
2022-08-24T01:44:27.377Z,39.82
2022-08-24T01:46:59.075Z,39.80
2022-08-24T01:49:33.913Z,39.81
2022-08-24T01:52:07.110Z,39.89
2022-08-24T01:54:43.487Z,39.93
2022-08-24T01:57:14.992Z,39.93
2022-08-24T01:59:48.305Z,39.96
2022-08-24T02:02:24.113Z,39.96
2022-08-24T02:04:55.926Z,39.98
2022-08-24T02:07:29.798Z,39.87
2022-08-24T02:10:01.579Z,39.93
2022-08-24T02:12:35.450Z,39.83
2022-08-24T02:15:08.807Z,39.78
2022-08-24T02:17:41.358Z,39.67
2022-08-24T02:20:13.294Z,39.53
2022-08-24T02:22:45.054Z,39.54
2022-08-24T02:25:17.825Z,39.47
2022-08-24T02:27:49.557Z,39.38
2022-08-24T02:30:21.695Z,39.26
2022-08-24T02:32:53.876Z,39.23
2022-08-24T02:35:25.744Z,39.27
2022-08-24T02:37:57.539Z,39.21
2022-08-24T02:40:30.420Z,39.25
2022-08-24T02:43:02.980Z,39.22
2022-08-24T02:45:41.371Z,39.23
2022-08-24T02:48:14.400Z,39.21
2022-08-24T02:50:48.482Z,39.24
2022-08-24T02:53:22.348Z,39.31
2022-08-24T02:55:54.545Z,39.36
2022-08-24T02:58:26.657Z,39.50
2022-08-24T03:00:58.664Z,39.74
2022-08-24T03:03:30.841Z,40.19
2022-08-24T03:06:03.626Z,40.48
2022-08-24T03:08:35.772Z,40.60
2022-08-24T03:11:08.519Z,40.69
2022-08-24T03:13:41.639Z,40.76
2022-08-24T03:16:13.724Z,40.74
2022-08-24T03:18:46.816Z,40.67
2022-08-24T03:21:18.723Z,40.69
2022-08-24T03:23:51.702Z,40.74
2022-08-24T03:26:23.739Z,40.82
2022-08-24T03:28:57.107Z,40.85
2022-08-24T03:31:30.957Z,40.95
2022-08-24T03:34:02.798Z,41.01
2022-08-24T03:36:34.970Z,41.12
2022-08-24T03:39:07.277Z,41.16
2022-08-24T03:41:39.339Z,41.16
2022-08-24T03:44:11.204Z,41.30
2022-08-24T03:46:45.098Z,41.23
2022-08-24T03:49:17.600Z,41.14
2022-08-24T03:51:50.465Z,40.91
2022-08-24T03:54:24.136Z,40.82
2022-08-24T03:56:55.934Z,40.91
2022-08-24T03:59:28.621Z,40.85
2022-08-24T04:02:01.742Z,40.95
2022-08-24T04:04:33.666Z,41.13
2022-08-24T04:07:06.463Z,41.18
2022-08-24T04:09:38.326Z,41.18
2022-08-24T04:12:11.594Z,41.27
2022-08-24T04:14:44.660Z,41.45
2022-08-24T04:17:18.935Z,41.76
2022-08-24T04:19:58.186Z,41.83
2022-08-24T04:22:34.473Z,42.06
2022-08-24T04:25:09.610Z,41.85
2022-08-24T04:27:43.264Z,42.21
2022-08-24T04:30:15.345Z,42.27
2022-08-24T04:32:48.914Z,42.57
2022-08-24T04:35:20.750Z,42.94
2022-08-24T04:37:53.042Z,43.03
2022-08-24T04:40:24.986Z,43.12
2022-08-24T04:42:58.819Z,43.33
2022-08-24T04:45:31.083Z,43.40
2022-08-24T04:48:03.019Z,43.26
2022-08-24T04:50:39.493Z,43.32
2022-08-24T04:53:13.735Z,43.47
2022-08-24T04:55:49.691Z,43.52
2022-08-24T04:58:22.160Z,43.77
2022-08-24T05:00:55.024Z,43.65
2022-08-24T05:03:26.853Z,43.24
2022-08-24T05:05:58.596Z,42.96
2022-08-24T05:08:30.363Z,42.72
2022-08-24T05:11:05.691Z,42.38
2022-08-24T05:13:38.147Z,41.77
2022-08-24T05:16:12.227Z,41.21
2022-08-24T05:18:45.262Z,41.05
2022-08-24T05:21:19.878Z,40.54
2022-08-24T05:23:53.763Z,40.29
2022-08-24T05:26:27.360Z,40.07
2022-08-24T05:29:01.102Z,38.83
2022-08-24T05:31:35.707Z,38.44
2022-08-24T05:34:09.832Z,38.35
2022-08-24T05:36:42.821Z,37.80
2022-08-24T05:39:16.277Z,36.99
2022-08-24T05:41:49.867Z,36.85
2022-08-24T05:44:30.689Z,36.83
2022-08-24T05:47:02.437Z,36.54
2022-08-24T05:49:40.801Z,36.16
2022-08-24T05:52:09.252Z,35.28
2022-08-24T05:54:41.107Z,34.53
2022-08-24T05:57:16.657Z,33.61
2022-08-24T05:59:56.590Z,33.32
2022-08-24T06:02:29.424Z,33.42
2022-08-24T06:05:01.661Z,33.13
2022-08-24T06:07:34.191Z,33.10
2022-08-24T06:10:34.834Z,32.75
2022-08-24T06:12:41.060Z,32.33
2022-08-24T06:15:13.422Z,31.48
2022-08-24T06:17:45.778Z,30.58
2022-08-24T06:20:17.934Z,30.24
2022-08-24T06:22:50.361Z,29.99
2022-08-24T06:25:40.509Z,30.34
2022-08-24T06:28:12.820Z,29.09
2022-08-24T06:30:45.040Z,28.86
2022-08-24T06:33:18.944Z,28.88
2022-08-24T06:35:52.650Z,28.32
2022-08-24T06:38:25.152Z,27.41
2022-08-24T06:40:57.659Z,27.23
2022-08-24T06:43:31.043Z,26.37
2022-08-24T06:46:05.358Z,25.55
2022-08-24T06:48:39.302Z,25.25
2022-08-24T06:51:13.105Z,24.92
2022-08-24T06:53:45.393Z,24.31
2022-08-24T06:56:17.573Z,24.22
2022-08-24T06:58:49.406Z,23.95
2022-08-24T07:01:28.647Z,23.26
2022-08-24T07:04:00.783Z,23.04
2022-08-24T07:06:44.433Z,22.51
2022-08-24T07:09:18.469Z,22.07
2022-08-24T07:11:50.998Z,21.79
2022-08-24T07:14:23.282Z,22.12
2022-08-24T07:16:55.605Z,22.31
2022-08-24T07:19:28.151Z,21.69
2022-08-24T07:22:00.016Z,21.54
2022-08-24T07:24:32.529Z,21.22
2022-08-24T07:27:04.882Z,21.30
2022-08-24T07:29:50.410Z,21.26
2022-08-24T07:32:12.544Z,21.22
2022-08-24T07:34:46.024Z,21.23
2022-08-24T07:37:18.107Z,21.70
2022-08-24T07:39:51.943Z,21.87
2022-08-24T07:42:31.258Z,21.87
2022-08-24T07:44:58.329Z,21.78
2022-08-24T07:47:41.042Z,21.54
2022-08-24T07:50:05.347Z,20.99
2022-08-24T07:52:37.365Z,21.37
2022-08-24T07:55:09.508Z,21.17
2022-08-24T07:57:44.960Z,20.71
2022-08-24T08:00:19.895Z,20.87
2022-08-24T08:02:53.735Z,20.70
2022-08-24T08:05:25.998Z,20.51
2022-08-24T08:07:58.253Z,20.32
2022-08-24T08:10:31.322Z,20.90
2022-08-24T08:13:06.168Z,20.88
2022-08-24T08:15:38.065Z,20.63
2022-08-24T08:18:11.973Z,20.72
2022-08-24T08:20:44.619Z,20.94
2022-08-24T08:23:34.718Z,21.12
2022-08-24T08:26:21.926Z,21.21
2022-08-24T08:28:58.367Z,21.24
2022-08-24T08:31:31.734Z,21.49
2022-08-24T08:34:06.223Z,21.32
2022-08-24T08:36:42.680Z,21.76
2022-08-24T08:39:17.616Z,21.77
2022-08-24T08:42:18.563Z,21.91
2022-08-24T08:45:12.502Z,22.15
2022-08-24T08:48:05.761Z,21.72
2022-08-24T08:51:00.726Z,22.03
2022-08-24T08:53:56.161Z,21.26
2022-08-24T08:56:59.600Z,21.38
2022-08-24T08:59:40.913Z,21.30
2022-08-24T09:02:26.078Z,21.65
2022-08-24T09:05:22.395Z,21.39
2022-08-24T09:08:17.399Z,21.45
2022-08-24T09:11:09.220Z,21.32
2022-08-24T09:14:00.028Z,21.56
2022-08-24T09:16:38.413Z,21.43
2022-08-24T09:19:31.876Z,21.52
2022-08-24T09:22:21.277Z,21.65
2022-08-24T09:25:05.259Z,21.81
2022-08-24T09:27:51.551Z,21.68
2022-08-24T09:30:28.158Z,21.45
2022-08-24T09:33:03.451Z,21.51
2022-08-24T09:35:55.749Z,21.51
2022-08-24T09:38:53.190Z,21.63
2022-08-24T09:41:43.306Z,21.57
2022-08-24T09:44:30.728Z,21.37
2022-08-24T09:47:17.788Z,21.21
2022-08-24T09:49:52.830Z,21.19
2022-08-24T09:52:36.553Z,21.25
2022-08-24T09:55:33.974Z,21.39
2022-08-24T09:58:14.977Z,21.52
2022-08-24T10:00:56.852Z,21.58
2022-08-24T10:03:58.208Z,21.76
2022-08-24T10:06:40.080Z,21.54
2022-08-24T10:09:48.134Z,21.93
2022-08-24T10:12:56.409Z,21.92
2022-08-24T10:15:33.979Z,21.84
2022-08-24T10:18:32.276Z,21.43
2022-08-24T10:21:32.413Z,21.34
2022-08-24T10:24:30.295Z,21.44
2022-08-24T10:27:23.701Z,21.37
2022-08-24T10:30:23.623Z,21.29
2022-08-24T10:32:56.323Z,20.78
2022-08-24T10:35:31.368Z,20.81
2022-08-24T10:38:40.844Z,20.77
2022-08-24T10:41:44.668Z,20.97
2022-08-24T10:44:26.040Z,20.60
2022-08-24T10:47:02.983Z,20.30
2022-08-24T10:49:38.663Z,20.50
2022-08-24T10:52:25.490Z,20.56
2022-08-24T10:54:57.850Z,20.34
2022-08-24T10:57:45.155Z,20.28
2022-08-24T11:00:20.412Z,20.06
2022-08-24T11:03:09.391Z,20.12
2022-08-24T11:05:47.066Z,19.86
2022-08-24T11:08:25.331Z,20.13
2022-08-24T11:11:14.656Z,20.24
2022-08-24T11:13:56.703Z,20.07
2022-08-24T11:16:32.292Z,20.11
2022-08-24T11:19:07.673Z,20.16
2022-08-24T11:21:45.619Z,20.33
2022-08-24T11:24:26.570Z,20.19
2022-08-24T11:27:04.024Z,20.53
2022-08-24T11:29:56.855Z,20.46
2022-08-24T11:32:43.683Z,20.12
2022-08-24T11:35:30.650Z,20.19
2022-08-24T11:38:08.621Z,19.98
2022-08-24T11:40:42.988Z,19.94
2022-08-24T11:43:29.702Z,19.96
2022-08-24T11:46:31.944Z,20.04
2022-08-24T11:49:15.944Z,20.12
2022-08-24T11:52:02.509Z,20.03
2022-08-24T11:54:54.277Z,19.70
2022-08-24T11:57:48.421Z,19.65
2022-08-24T12:00:23.531Z,19.53
2022-08-24T12:03:00.184Z,19.60
2022-08-24T12:05:44.569Z,19.22
2022-08-24T12:08:28.664Z,18.96
2022-08-24T12:11:23.828Z,19.01
2022-08-24T12:14:18.108Z,19.14
2022-08-24T12:17:08.032Z,18.85
2022-08-24T12:19:45.705Z,18.96
2022-08-24T12:22:17.803Z,18.93
2022-08-24T12:24:55.779Z,18.74
2022-08-24T12:27:30.093Z,18.65
2022-08-24T12:30:12.429Z,18.82
2022-08-24T12:32:49.931Z,18.85
2022-08-24T12:35:24.923Z,18.46
2022-08-24T12:38:03.128Z,18.17
2022-08-24T12:40:43.801Z,18.26
2022-08-24T12:43:21.646Z,18.24
2022-08-24T12:45:53.390Z,18.08
2022-08-24T12:48:27.592Z,18.30
2022-08-24T12:51:19.078Z,17.88
2022-08-24T12:54:21.417Z,17.61
2022-08-24T12:57:13.810Z,18.02
2022-08-24T12:59:51.411Z,17.99
2022-08-24T13:02:26.561Z,17.81
2022-08-24T13:05:01.732Z,18.06
2022-08-24T13:07:41.520Z,18.03
2022-08-24T13:10:16.973Z,18.04
2022-08-24T13:12:55.033Z,18.14
2022-08-24T13:15:30.145Z,17.80
2022-08-24T13:18:16.881Z,17.93
2022-08-24T13:20:56.728Z,18.20
2022-08-24T13:23:29.068Z,18.18
2022-08-24T13:26:20.793Z,18.47
2022-08-24T13:28:55.623Z,18.57
2022-08-24T13:31:35.221Z,18.39
2022-08-24T13:34:15.178Z,18.23
2022-08-24T13:37:14.495Z,18.37
2022-08-24T13:40:06.322Z,18.57
2022-08-24T13:42:53.942Z,18.61
2022-08-24T13:45:27.955Z,18.52
2022-08-24T13:48:04.352Z,18.66
2022-08-24T13:51:00.911Z,18.79
2022-08-24T13:53:54.529Z,18.99
2022-08-24T13:56:32.726Z,18.72
2022-08-24T13:59:12.414Z,18.58
2022-08-24T14:02:20.556Z,18.41
2022-08-24T14:04:58.249Z,18.63
2022-08-24T14:07:33.399Z,18.66
2022-08-24T14:10:37.281Z,18.69
2022-08-24T14:13:30.463Z,18.83
2022-08-24T14:16:47.832Z,18.82
2022-08-24T14:19:35.898Z,18.73
2022-08-24T14:22:16.545Z,18.33
2022-08-24T14:24:51.603Z,18.46
2022-08-24T14:27:47.365Z,18.67
2022-08-24T14:30:23.649Z,18.87
2022-08-24T14:33:04.944Z,18.96
2022-08-24T14:35:45.904Z,19.26
2022-08-24T14:38:27.155Z,19.07
2022-08-24T14:41:19.907Z,19.22
2022-08-24T14:44:15.892Z,19.13
2022-08-24T14:46:57.125Z,19.08
2022-08-24T14:50:10.654Z,19.43
2022-08-24T14:52:53.266Z,19.39
2022-08-24T14:55:49.408Z,19.29
2022-08-24T14:58:58.076Z,19.45
2022-08-24T15:01:44.979Z,19.20
2022-08-24T15:04:49.597Z,19.31
2022-08-24T15:07:27.518Z,19.34
2022-08-24T15:09:59.781Z,19.64
2022-08-24T15:12:42.800Z,19.54
2022-08-24T15:15:26.465Z,19.42
2022-08-24T15:18:21.942Z,19.39
2022-08-24T15:21:15.655Z,19.45
2022-08-24T15:24:10.458Z,19.54
2022-08-24T15:26:57.899Z,19.71
2022-08-24T15:29:33.217Z,19.73
2022-08-24T15:32:11.497Z,19.85
2022-08-24T15:34:53.338Z,19.91
2022-08-24T15:37:31.155Z,20.13
2022-08-24T15:40:05.333Z,20.27
2022-08-24T15:42:37.733Z,20.54
2022-08-24T15:45:09.802Z,20.75
2022-08-24T15:47:41.656Z,20.92
2022-08-24T15:50:25.946Z,21.09
2022-08-24T15:53:06.215Z,21.27
2022-08-24T15:55:44.289Z,21.40
2022-08-24T15:58:28.811Z,21.58
2022-08-24T16:01:30.542Z,21.94
2022-08-24T16:04:11.413Z,22.43
2022-08-24T16:06:46.662Z,22.83
2022-08-24T16:09:29.169Z,23.28
2022-08-24T16:12:16.710Z,23.63
2022-08-24T16:14:53.016Z,23.85
2022-08-24T16:17:36.623Z,24.14
2022-08-24T16:20:14.454Z,24.33
2022-08-24T16:23:04.838Z,24.53
2022-08-24T16:25:43.502Z,24.60
2022-08-24T16:28:26.397Z,24.87
2022-08-24T16:31:00.959Z,25.14
2022-08-24T16:33:44.279Z,25.32
2022-08-24T16:36:17.768Z,25.50
2022-08-24T16:38:51.110Z,25.70
2022-08-24T16:41:24.411Z,26.01
2022-08-24T16:43:56.337Z,26.14
2022-08-24T16:46:28.481Z,26.25
2022-08-24T16:49:00.265Z,26.40
2022-08-24T16:51:32.619Z,26.47
2022-08-24T16:54:04.493Z,26.52
2022-08-24T16:56:36.264Z,26.53
2022-08-24T16:59:08.204Z,26.57
2022-08-24T17:01:40.164Z,26.66
2022-08-24T17:04:12.069Z,26.63
2022-08-24T17:06:44.107Z,26.49
2022-08-24T17:09:17.846Z,26.41
2022-08-24T17:11:49.775Z,26.39
2022-08-24T17:14:21.519Z,26.40
2022-08-24T17:16:53.415Z,26.40
2022-08-24T17:19:25.585Z,26.44
2022-08-24T17:21:58.146Z,26.56
2022-08-24T17:24:30.036Z,26.63
2022-08-24T17:27:01.875Z,26.70
2022-08-24T17:29:33.758Z,26.76
2022-08-24T17:32:06.300Z,26.84
2022-08-24T17:34:38.291Z,26.91
2022-08-24T17:37:10.342Z,26.99
2022-08-24T17:39:42.941Z,26.96
2022-08-24T17:42:39.982Z,27.02
2022-08-24T17:44:49.186Z,27.15
2022-08-24T17:47:21.042Z,27.26
2022-08-24T17:49:52.868Z,27.22
2022-08-24T17:52:25.653Z,27.31
2022-08-24T17:54:57.558Z,27.39
2022-08-24T17:57:29.328Z,27.32
2022-08-24T18:00:01.359Z,27.37
2022-08-24T18:02:35.157Z,27.48
2022-08-24T18:05:08.644Z,27.57
2022-08-24T18:07:53.143Z,27.61
2022-08-24T18:10:15.489Z,27.64
2022-08-24T18:12:47.342Z,27.82
2022-08-24T18:15:20.639Z,27.97
2022-08-24T18:17:53.083Z,28.05
2022-08-24T18:20:31.286Z,28.18
2022-08-24T18:23:03.127Z,28.35
2022-08-24T18:25:36.746Z,28.42
2022-08-24T18:28:08.747Z,28.35
2022-08-24T18:30:41.615Z,28.28
2022-08-24T18:33:13.387Z,28.32
2022-08-24T18:35:47.155Z,28.28
2022-08-24T18:38:18.958Z,28.45
2022-08-24T18:40:52.639Z,28.29
2022-08-24T18:43:24.868Z,28.34
2022-08-24T18:45:56.857Z,28.39
2022-08-24T18:48:28.624Z,28.35
2022-08-24T18:51:00.425Z,28.42
2022-08-24T18:53:34.089Z,28.48
2022-08-24T18:56:11.815Z,28.51
2022-08-24T18:58:40.519Z,28.45
2022-08-24T19:01:12.750Z,28.51
2022-08-24T19:03:44.603Z,28.46
2022-08-24T19:06:16.341Z,28.44
2022-08-24T19:08:48.402Z,28.40
2022-08-24T19:11:22.695Z,28.44
2022-08-24T19:13:54.345Z,28.52
2022-08-24T19:16:28.051Z,28.59
2022-08-24T19:18:59.911Z,28.58
2022-08-24T19:21:33.020Z,28.67
2022-08-24T19:24:07.221Z,28.74
2022-08-24T19:26:39.527Z,28.80
2022-08-24T19:29:11.372Z,28.82
2022-08-24T19:31:43.140Z,28.83
2022-08-24T19:34:15.188Z,28.91
2022-08-24T19:36:47.144Z,28.92
2022-08-24T19:39:19.219Z,29.00
2022-08-24T19:41:52.914Z,29.02
2022-08-24T19:44:47.364Z,29.05
2022-08-24T19:47:17.331Z,29.12
2022-08-24T19:49:49.168Z,29.15
2022-08-24T19:52:20.899Z,29.20
2022-08-24T19:54:52.665Z,29.27
2022-08-24T19:57:32.477Z,29.38
2022-08-24T20:00:19.396Z,29.45
2022-08-24T20:02:53.115Z,29.51
2022-08-24T20:05:28.371Z,29.63
2022-08-24T20:08:00.925Z,29.69
2022-08-24T20:10:34.120Z,29.82
2022-08-24T20:13:06.368Z,29.96
2022-08-24T20:15:39.994Z,30.07
2022-08-24T20:18:11.754Z,30.22
2022-08-24T20:20:43.485Z,30.31
2022-08-24T20:23:15.699Z,30.38
2022-08-24T20:25:47.435Z,30.45
2022-08-24T20:28:38.119Z,30.51
2022-08-24T20:30:52.855Z,30.61
2022-08-24T20:33:25.047Z,30.74
2022-08-24T20:35:57.300Z,30.84
2022-08-24T20:38:31.805Z,30.87
2022-08-24T20:41:02.856Z,30.93
2022-08-24T20:43:34.829Z,30.98
2022-08-24T20:46:06.957Z,31.02
2022-08-24T20:48:43.096Z,31.13
2022-08-24T20:51:12.987Z,31.28
2022-08-24T20:53:45.803Z,31.35
2022-08-24T20:56:20.829Z,31.46
2022-08-24T20:58:54.400Z,31.55
2022-08-24T21:01:26.335Z,31.62
2022-08-24T21:04:02.794Z,31.66
2022-08-24T21:06:32.107Z,31.71
2022-08-24T21:09:05.804Z,31.74
2022-08-24T21:11:37.860Z,31.80
2022-08-24T21:14:10.607Z,31.84
2022-08-24T21:16:43.608Z,31.85
2022-08-24T21:19:18.022Z,31.94
2022-08-24T21:21:50.769Z,32.00
2022-08-24T21:24:24.291Z,32.02
2022-08-24T21:26:56.023Z,32.01
2022-08-24T21:29:27.857Z,32.14
2022-08-24T21:32:17.392Z,32.12
2022-08-24T21:34:49.574Z,32.12
2022-08-24T21:37:22.279Z,32.10
2022-08-24T21:39:55.743Z,32.02
2022-08-24T21:42:27.667Z,32.00
2022-08-24T21:44:59.418Z,32.04
2022-08-24T21:47:31.463Z,32.04
2022-08-24T21:50:03.247Z,32.12
2022-08-24T21:52:35.660Z,32.15
2022-08-24T21:55:10.608Z,32.21
2022-08-24T21:57:41.646Z,32.28
2022-08-24T22:00:16.043Z,32.38
2022-08-24T22:02:48.788Z,32.44
2022-08-24T22:05:21.554Z,32.59
2022-08-24T22:07:53.297Z,32.67
2022-08-24T22:10:26.361Z,32.80
2022-08-24T22:13:02.061Z,32.85
2022-08-24T22:15:33.305Z,32.89
2022-08-24T22:18:05.164Z,32.92
2022-08-24T22:20:37.429Z,32.98
2022-08-24T22:23:09.909Z,33.06
2022-08-24T22:25:41.949Z,33.19
2022-08-24T22:28:13.677Z,33.26
2022-08-24T22:30:47.137Z,33.37
2022-08-24T22:33:21.367Z,33.50
2022-08-24T22:35:53.477Z,33.69
2022-08-24T22:38:25.239Z,33.88
2022-08-24T22:40:57.288Z,33.98
2022-08-24T22:43:31.114Z,34.16
2022-08-24T22:46:02.973Z,34.31
2022-08-24T22:48:36.984Z,34.60
2022-08-24T22:51:10.468Z,34.96
2022-08-24T22:53:42.313Z,35.14
2022-08-24T22:56:18.849Z,35.14
2022-08-24T22:58:50.767Z,35.41
2022-08-24T23:01:24.015Z,35.71
2022-08-24T23:03:56.843Z,35.76
2022-08-24T23:06:30.074Z,35.92
2022-08-24T23:09:01.934Z,36.04
2022-08-24T23:11:34.285Z,36.40
2022-08-24T23:14:07.449Z,36.57
2022-08-24T23:16:40.877Z,36.64
2022-08-24T23:19:31.390Z,36.66
2022-08-24T23:22:03.327Z,36.98
2022-08-24T23:24:35.470Z,37.01
2022-08-24T23:27:07.608Z,37.21
2022-08-24T23:29:39.841Z,37.45
2022-08-24T23:32:17.761Z,37.69
2022-08-24T23:34:48.822Z,37.86
2022-08-24T23:37:20.832Z,38.01
2022-08-24T23:39:52.607Z,38.30
2022-08-24T23:42:24.685Z,38.28
2022-08-24T23:44:56.450Z,38.36
2022-08-24T23:47:29.172Z,38.51
2022-08-24T23:50:00.854Z,38.56
2022-08-24T23:52:32.741Z,38.53
2022-08-24T23:55:20.063Z,38.45
2022-08-24T23:57:39.884Z,38.49
